sensor_id;sensor_type;location;lat;lon;timestamp;pressure;altitude;pressure_sealevel;temperature;humidity
11349;BME280;5729;43.570;27.826;2022-08-30T00:01:21;98963.38;;;23.96;100.00
11349;BME280;5729;43.570;27.826;2022-08-30T00:03:49;98967.06;;;23.93;100.00
11349;BME280;5729;43.570;27.826;2022-08-30T00:06:17;98964.09;;;23.87;100.00
11349;BME280;5729;43.570;27.826;2022-08-30T00:08:45;98953.22;;;23.83;100.00
11349;BME280;5729;43.570;27.826;2022-08-30T00:11:15;98963.38;;;23.74;100.00
11349;BME280;5729;43.570;27.826;2022-08-30T00:13:43;98958.31;;;23.72;100.00
11349;BME280;5729;43.570;27.826;2022-08-30T00:16:08;98965.38;;;23.73;100.00
11349;BME280;5729;43.570;27.826;2022-08-30T00:18:35;98955.41;;;23.67;100.00
11349;BME280;5729;43.570;27.826;2022-08-30T00:21:01;98957.06;;;23.64;100.00
11349;BME280;5729;43.570;27.826;2022-08-30T00:23:27;98937.09;;;23.51;100.00
11349;BME280;5729;43.570;27.826;2022-08-30T00:25:53;98958.72;;;23.62;100.00
11349;BME280;5729;43.570;27.826;2022-08-30T00:28:18;98951.94;;;23.53;100.00
11349;BME280;5729;43.570;27.826;2022-08-30T00:30:44;98952.59;;;23.58;100.00
11349;BME280;5729;43.570;27.826;2022-08-30T00:33:11;98950.28;;;23.56;100.00
11349;BME280;5729;43.570;27.826;2022-08-30T00:35:37;98957.53;;;23.50;100.00
11349;BME280;5729;43.570;27.826;2022-08-30T00:38:07;98957.19;;;23.48;100.00
11349;BME280;5729;43.570;27.826;2022-08-30T00:40:33;98913.88;;;23.17;100.00
11349;BME280;5729;43.570;27.826;2022-08-30T00:43:00;98957.13;;;23.39;100.00
11349;BME280;5729;43.570;27.826;2022-08-30T00:45:30;98958.59;;;23.31;100.00
11349;BME280;5729;43.570;27.826;2022-08-30T00:47:57;98958.38;;;23.25;100.00
11349;BME280;5729;43.570;27.826;2022-08-30T00:50:27;98960.94;;;23.20;100.00
11349;BME280;5729;43.570;27.826;2022-08-30T00:52:56;98960.28;;;23.15;100.00
11349;BME280;5729;43.570;27.826;2022-08-30T00:55:22;98961.28;;;23.09;100.00
11349;BME280;5729;43.570;27.826;2022-08-30T00:57:50;98961.53;;;23.02;100.00
11349;BME280;5729;43.570;27.826;2022-08-30T01:00:18;98967.91;;;22.99;100.00
11349;BME280;5729;43.570;27.826;2022-08-30T01:02:43;98959.00;;;22.95;100.00
11349;BME280;5729;43.570;27.826;2022-08-30T01:05:10;98971.09;;;22.97;100.00
11349;BME280;5729;43.570;27.826;2022-08-30T01:07:37;98969.34;;;22.91;100.00
11349;BME280;5729;43.570;27.826;2022-08-30T01:10:05;98961.66;;;22.86;100.00
11349;BME280;5729;43.570;27.826;2022-08-30T01:12:31;98964.72;;;22.75;100.00
11349;BME280;5729;43.570;27.826;2022-08-30T01:14:58;98955.38;;;22.72;100.00
11349;BME280;5729;43.570;27.826;2022-08-30T01:17:24;98961.19;;;22.74;100.00
11349;BME280;5729;43.570;27.826;2022-08-30T01:20:04;98956.38;;;22.66;100.00
11349;BME280;5729;43.570;27.826;2022-08-30T01:25:16;98961.44;;;22.67;100.00
11349;BME280;5729;43.570;27.826;2022-08-30T01:28:02;98963.19;;;22.61;100.00
11349;BME280;5729;43.570;27.826;2022-08-30T01:30:29;98964.06;;;22.58;100.00
11349;BME280;5729;43.570;27.826;2022-08-30T01:32:58;98942.53;;;22.44;100.00
11349;BME280;5729;43.570;27.826;2022-08-30T01:35:24;98964.38;;;22.48;100.00
11349;BME280;5729;43.570;27.826;2022-08-30T01:37:50;98964.06;;;22.45;100.00
11349;BME280;5729;43.570;27.826;2022-08-30T01:40:16;98959.44;;;22.42;100.00
11349;BME280;5729;43.570;27.826;2022-08-30T01:42:43;98958.78;;;22.38;100.00
11349;BME280;5729;43.570;27.826;2022-08-30T01:45:10;98957.25;;;22.37;100.00
11349;BME280;5729;43.570;27.826;2022-08-30T01:47:36;98956.59;;;22.33;100.00
11349;BME280;5729;43.570;27.826;2022-08-30T01:50:04;98950.09;;;22.27;100.00
11349;BME280;5729;43.570;27.826;2022-08-30T01:52:29;98952.84;;;22.27;100.00
11349;BME280;5729;43.570;27.826;2022-08-30T01:54:55;98959.19;;;22.24;100.00
11349;BME280;5729;43.570;27.826;2022-08-30T01:57:22;98949.88;;;22.22;100.00
11349;BME280;5729;43.570;27.826;2022-08-30T01:59:48;98955.13;;;22.16;100.00
11349;BME280;5729;43.570;27.826;2022-08-30T02:02:26;98958.31;;;22.15;100.00
11349;BME280;5729;43.570;27.826;2022-08-30T02:04:54;98963.78;;;22.02;100.00
11349;BME280;5729;43.570;27.826;2022-08-30T02:07:21;98959.50;;;22.01;100.00
11349;BME280;5729;43.570;27.826;2022-08-30T02:09:48;98959.44;;;21.88;100.00
11349;BME280;5729;43.570;27.826;2022-08-30T02:12:14;98965.38;;;21.87;100.00
11349;BME280;5729;43.570;27.826;2022-08-30T02:14:39;98971.97;;;21.89;100.00
11349;BME280;5729;43.570;27.826;2022-08-30T02:17:07;98961.88;;;21.86;100.00
11349;BME280;5729;43.570;27.826;2022-08-30T02:19:33;98964.16;;;21.88;100.00
11349;BME280;5729;43.570;27.826;2022-08-30T02:21:58;98967.69;;;21.88;100.00
11349;BME280;5729;43.570;27.826;2022-08-30T02:24:24;98964.34;;;21.81;100.00
11349;BME280;5729;43.570;27.826;2022-08-30T02:26:49;98961.63;;;21.81;100.00
11349;BME280;5729;43.570;27.826;2022-08-30T02:29:18;98952.38;;;21.74;100.00
11349;BME280;5729;43.570;27.826;2022-08-30T02:31:43;98965.13;;;21.81;100.00
11349;BME280;5729;43.570;27.826;2022-08-30T02:34:09;98965.38;;;21.87;100.00
11349;BME280;5729;43.570;27.826;2022-08-30T02:36:34;98964.59;;;21.86;100.00
11349;BME280;5729;43.570;27.826;2022-08-30T02:39:01;98969.41;;;21.82;100.00
11349;BME280;5729;43.570;27.826;2022-08-30T02:41:26;98970.72;;;21.78;100.00
11349;BME280;5729;43.570;27.826;2022-08-30T02:43:52;98975.53;;;21.73;100.00
11349;BME280;5729;43.570;27.826;2022-08-30T02:46:22;98979.38;;;21.76;100.00
11349;BME280;5729;43.570;27.826;2022-08-30T02:48:48;98978.72;;;21.72;100.00
11349;BME280;5729;43.570;27.826;2022-08-30T02:51:13;98980.25;;;21.73;100.00
11349;BME280;5729;43.570;27.826;2022-08-30T02:53:41;98978.38;;;21.70;100.00
11349;BME280;5729;43.570;27.826;2022-08-30T02:56:08;98979.06;;;21.58;100.00
11349;BME280;5729;43.570;27.826;2022-08-30T02:58:34;98991.03;;;21.51;100.00
11349;BME280;5729;43.570;27.826;2022-08-30T03:01:00;98985.44;;;21.55;100.00
11349;BME280;5729;43.570;27.826;2022-08-30T03:03:25;98988.78;;;21.46;100.00
11349;BME280;5729;43.570;27.826;2022-08-30T03:05:51;98982.44;;;21.49;100.00
11349;BME280;5729;43.570;27.826;2022-08-30T03:08:16;98976.63;;;21.47;100.00
11349;BME280;5729;43.570;27.826;2022-08-30T03:10:42;98984.69;;;21.38;100.00
11349;BME280;5729;43.570;27.826;2022-08-30T03:13:07;98975.63;;;21.41;100.00
11349;BME280;5729;43.570;27.826;2022-08-30T03:15:34;98963.81;;;21.28;100.00
11349;BME280;5729;43.570;27.826;2022-08-30T03:18:00;98985.91;;;21.37;100.00
11349;BME280;5729;43.570;27.826;2022-08-30T03:20:26;98986.94;;;21.27;100.00
11349;BME280;5729;43.570;27.826;2022-08-30T03:22:52;98988.06;;;21.29;100.00
11349;BME280;5729;43.570;27.826;2022-08-30T03:25:19;98994.75;;;21.28;100.00
11349;BME280;5729;43.570;27.826;2022-08-30T03:27:47;98995.94;;;21.27;100.00
11349;BME280;5729;43.570;27.826;2022-08-30T03:30:16;98977.41;;;21.15;100.00
11349;BME280;5729;43.570;27.826;2022-08-30T03:32:42;98998.34;;;21.25;100.00
11349;BME280;5729;43.570;27.826;2022-08-30T03:35:07;99002.84;;;21.16;100.00
11349;BME280;5729;43.570;27.826;2022-08-30T03:37:34;99001.94;;;21.22;100.00
11349;BME280;5729;43.570;27.826;2022-08-30T03:40:00;99015.22;;;21.24;100.00
11349;BME280;5729;43.570;27.826;2022-08-30T03:42:26;99004.66;;;21.22;100.00
11349;BME280;5729;43.570;27.826;2022-08-30T03:44:52;99010.06;;;21.26;100.00
11349;BME280;5729;43.570;27.826;2022-08-30T03:47:17;99023.78;;;21.26;100.00
11349;BME280;5729;43.570;27.826;2022-08-30T03:49:45;99026.16;;;21.24;100.00
11349;BME280;5729;43.570;27.826;2022-08-30T03:52:11;99018.22;;;21.29;100.00
11349;BME280;5729;43.570;27.826;2022-08-30T03:54:37;99024.03;;;21.31;100.00
11349;BME280;5729;43.570;27.826;2022-08-30T03:57:04;99021.38;;;21.28;100.00
11349;BME280;5729;43.570;27.826;2022-08-30T03:59:31;99017.09;;;21.27;100.00
11349;BME280;5729;43.570;27.826;2022-08-30T04:01:56;99015.91;;;21.28;100.00
11349;BME280;5729;43.570;27.826;2022-08-30T04:04:23;99017.94;;;21.24;100.00
11349;BME280;5729;43.570;27.826;2022-08-30T04:06:49;99025.66;;;21.29;100.00
11349;BME280;5729;43.570;27.826;2022-08-30T04:09:15;99034.66;;;21.29;100.00
11349;BME280;5729;43.570;27.826;2022-08-30T04:11:40;99022.03;;;21.16;100.00
11349;BME280;5729;43.570;27.826;2022-08-30T04:14:06;99024.63;;;21.23;100.00
11349;BME280;5729;43.570;27.826;2022-08-30T04:16:31;99021.88;;;21.23;100.00
11349;BME280;5729;43.570;27.826;2022-08-30T04:18:57;99030.03;;;21.26;100.00
11349;BME280;5729;43.570;27.826;2022-08-30T04:21:22;99033.97;;;21.25;100.00
11349;BME280;5729;43.570;27.826;2022-08-30T04:23:48;99039.72;;;21.31;100.00
11349;BME280;5729;43.570;27.826;2022-08-30T04:26:13;99048.03;;;21.27;100.00
11349;BME280;5729;43.570;27.826;2022-08-30T04:28:39;99041.00;;;21.26;100.00
11349;BME280;5729;43.570;27.826;2022-08-30T04:31:09;99047.66;;;21.25;100.00
11349;BME280;5729;43.570;27.826;2022-08-30T04:33:35;99048.97;;;21.21;100.00
11349;BME280;5729;43.570;27.826;2022-08-30T04:36:03;99054.00;;;21.22;100.00
11349;BME280;5729;43.570;27.826;2022-08-30T04:38:30;99049.75;;;21.21;100.00
11349;BME280;5729;43.570;27.826;2022-08-30T04:40:56;99055.03;;;21.28;100.00
11349;BME280;5729;43.570;27.826;2022-08-30T04:43:21;99055.75;;;21.32;100.00
11349;BME280;5729;43.570;27.826;2022-08-30T04:45:49;99060.69;;;21.37;100.00
11349;BME280;5729;43.570;27.826;2022-08-30T04:48:16;99043.72;;;21.26;100.00
11349;BME280;5729;43.570;27.826;2022-08-30T04:50:42;99062.81;;;21.46;100.00
11349;BME280;5729;43.570;27.826;2022-08-30T04:53:07;99062.31;;;21.51;100.00
11349;BME280;5729;43.570;27.826;2022-08-30T04:55:33;99056.63;;;21.58;100.00
11349;BME280;5729;43.570;27.826;2022-08-30T04:57:58;99042.78;;;21.49;100.00
11349;BME280;5729;43.570;27.826;2022-08-30T05:00:24;99066.56;;;21.68;100.00
11349;BME280;5729;43.570;27.826;2022-08-30T05:02:50;99071.88;;;21.76;100.00
11349;BME280;5729;43.570;27.826;2022-08-30T05:05:15;99055.44;;;21.76;100.00
11349;BME280;5729;43.570;27.826;2022-08-30T05:08:00;99069.28;;;21.85;100.00
11349;BME280;5729;43.570;27.826;2022-08-30T05:10:25;99069.53;;;21.90;100.00
11349;BME280;5729;43.570;27.826;2022-08-30T05:12:52;99071.41;;;21.93;100.00
11349;BME280;5729;43.570;27.826;2022-08-30T05:15:18;99068.19;;;21.98;100.00
11349;BME280;5729;43.570;27.826;2022-08-30T05:17:43;99075.44;;;22.05;100.00
11349;BME280;5729;43.570;27.826;2022-08-30T05:20:10;99076.88;;;22.09;100.00
11349;BME280;5729;43.570;27.826;2022-08-30T05:22:37;99076.56;;;22.07;100.00
11349;BME280;5729;43.570;27.826;2022-08-30T05:25:05;99086.81;;;22.20;100.00
11349;BME280;5729;43.570;27.826;2022-08-30T05:27:30;99074.50;;;22.24;100.00
11349;BME280;5729;43.570;27.826;2022-08-30T05:29:56;99079.81;;;22.31;100.00
11349;BME280;5729;43.570;27.826;2022-08-30T05:32:21;99079.94;;;22.40;100.00
11349;BME280;5729;43.570;27.826;2022-08-30T05:34:47;99076.88;;;22.51;100.00
11349;BME280;5729;43.570;27.826;2022-08-30T05:37:13;99080.88;;;22.63;100.00
11349;BME280;5729;43.570;27.826;2022-08-30T05:39:38;99082.53;;;22.73;100.00
11349;BME280;5729;43.570;27.826;2022-08-30T05:42:04;99069.22;;;22.71;100.00
11349;BME280;5729;43.570;27.826;2022-08-30T05:44:29;99078.50;;;22.90;100.00
11349;BME280;5729;43.570;27.826;2022-08-30T05:46:55;99082.25;;;22.96;100.00
11349;BME280;5729;43.570;27.826;2022-08-30T05:49:20;99086.31;;;23.04;100.00
11349;BME280;5729;43.570;27.826;2022-08-30T05:51:46;99072.78;;;23.10;100.00
11349;BME280;5729;43.570;27.826;2022-08-30T05:54:13;99077.19;;;23.20;100.00
11349;BME280;5729;43.570;27.826;2022-08-30T05:56:40;99063.44;;;23.20;100.00
11349;BME280;5729;43.570;27.826;2022-08-30T05:59:07;99080.13;;;23.38;100.00
11349;BME280;5729;43.570;27.826;2022-08-30T06:01:35;99078.47;;;23.53;100.00
11349;BME280;5729;43.570;27.826;2022-08-30T06:04:03;99088.25;;;23.67;100.00
11349;BME280;5729;43.570;27.826;2022-08-30T06:06:30;99057.19;;;23.67;100.00
11349;BME280;5729;43.570;27.826;2022-08-30T06:08:56;99074.06;;;23.91;100.00
11349;BME280;5729;43.570;27.826;2022-08-30T06:11:23;99077.22;;;24.02;100.00
11349;BME280;5729;43.570;27.826;2022-08-30T06:13:50;99078.84;;;24.12;100.00
11349;BME280;5729;43.570;27.826;2022-08-30T06:16:19;99071.53;;;24.18;100.00
11349;BME280;5729;43.570;27.826;2022-08-30T06:18:45;99066.88;;;24.28;100.00
11349;BME280;5729;43.570;27.826;2022-08-30T06:21:17;99077.38;;;24.42;100.00
11349;BME280;5729;43.570;27.826;2022-08-30T06:23:43;99075.44;;;24.51;100.00
11349;BME280;5729;43.570;27.826;2022-08-30T06:26:09;99085.00;;;24.59;100.00
11349;BME280;5729;43.570;27.826;2022-08-30T06:28:35;99091.31;;;24.69;100.00
11349;BME280;5729;43.570;27.826;2022-08-30T06:31:04;99084.88;;;24.72;100.00
11349;BME280;5729;43.570;27.826;2022-08-30T06:33:30;99076.97;;;24.83;100.00
11349;BME280;5729;43.570;27.826;2022-08-30T06:36:13;99087.28;;;24.92;100.00
11349;BME280;5729;43.570;27.826;2022-08-30T06:38:40;99087.34;;;25.01;100.00
11349;BME280;5729;43.570;27.826;2022-08-30T06:41:11;99088.91;;;25.11;100.00
11349;BME280;5729;43.570;27.826;2022-08-30T06:43:37;99081.75;;;25.23;100.00
11349;BME280;5729;43.570;27.826;2022-08-30T06:46:05;99085.44;;;25.29;100.00
11349;BME280;5729;43.570;27.826;2022-08-30T06:48:32;99090.25;;;25.38;100.00
11349;BME280;5729;43.570;27.826;2022-08-30T06:50:57;99075.06;;;25.42;100.00
11349;BME280;5729;43.570;27.826;2022-08-30T06:53:23;99080.91;;;25.53;100.00
11349;BME280;5729;43.570;27.826;2022-08-30T06:55:56;99079.25;;;25.65;100.00
11349;BME280;5729;43.570;27.826;2022-08-30T06:58:23;99080.34;;;25.77;100.00
11349;BME280;5729;43.570;27.826;2022-08-30T07:00:48;99077.59;;;25.86;100.00
11349;BME280;5729;43.570;27.826;2022-08-30T07:03:14;99074.53;;;25.93;98.69
11349;BME280;5729;43.570;27.826;2022-08-30T07:05:40;99062.88;;;25.98;100.00
11349;BME280;5729;43.570;27.826;2022-08-30T07:08:05;99074.53;;;26.11;97.94
11349;BME280;5729;43.570;27.826;2022-08-30T07:10:31;99072.69;;;26.17;98.41
11349;BME280;5729;43.570;27.826;2022-08-30T07:12:56;99071.03;;;26.29;94.36
11349;BME280;5729;43.570;27.826;2022-08-30T07:15:22;99074.34;;;26.42;93.39
11349;BME280;5729;43.570;27.826;2022-08-30T07:17:48;99074.97;;;26.46;91.78
11349;BME280;5729;43.570;27.826;2022-08-30T07:20:32;99078.63;;;26.61;93.14
11349;BME280;5729;43.570;27.826;2022-08-30T07:22:58;99077.06;;;26.69;90.69
11349;BME280;5729;43.570;27.826;2022-08-30T07:25:23;99078.84;;;26.82;91.90
11349;BME280;5729;43.570;27.826;2022-08-30T07:27:49;99073.63;;;26.93;90.13
11349;BME280;5729;43.570;27.826;2022-08-30T07:30:17;99072.34;;;27.03;90.16
11349;BME280;5729;43.570;27.826;2022-08-30T07:32:43;99077.84;;;27.12;87.96
11349;BME280;5729;43.570;27.826;2022-08-30T07:35:08;99075.97;;;27.18;84.01
11349;BME280;5729;43.570;27.826;2022-08-30T07:37:34;99068.09;;;27.26;85.32
11349;BME280;5729;43.570;27.826;2022-08-30T07:40:01;99062.97;;;27.33;87.13
11349;BME280;5729;43.570;27.826;2022-08-30T07:42:26;99080.41;;;27.48;79.93
11349;BME280;5729;43.570;27.826;2022-08-30T07:44:52;99071.91;;;27.61;79.86
11349;BME280;5729;43.570;27.826;2022-08-30T07:47:17;99057.09;;;27.64;75.06
11349;BME280;5729;43.570;27.826;2022-08-30T07:49:42;99070.34;;;27.84;75.70
11349;BME280;5729;43.570;27.826;2022-08-30T07:52:08;99074.56;;;27.94;76.09
11349;BME280;5729;43.570;27.826;2022-08-30T07:54:33;99057.56;;;28.01;72.77
11349;BME280;5729;43.570;27.826;2022-08-30T07:56:59;99068.31;;;28.23;76.17
11349;BME280;5729;43.570;27.826;2022-08-30T07:59:24;99060.03;;;28.38;74.36
11349;BME280;5729;43.570;27.826;2022-08-30T08:01:50;99058.78;;;28.53;75.70
11349;BME280;5729;43.570;27.826;2022-08-30T08:04:15;99061.81;;;28.70;70.17
11349;BME280;5729;43.570;27.826;2022-08-30T08:06:41;99067.19;;;28.88;66.90
11349;BME280;5729;43.570;27.826;2022-08-30T08:09:07;99072.91;;;29.00;71.47
11349;BME280;5729;43.570;27.826;2022-08-30T08:11:34;99060.56;;;29.01;66.94
11349;BME280;5729;43.570;27.826;2022-08-30T08:14:01;99060.34;;;29.04;67.56
11349;BME280;5729;43.570;27.826;2022-08-30T08:16:28;99056.00;;;29.18;66.12
11349;BME280;5729;43.570;27.826;2022-08-30T08:18:54;99059.94;;;29.87;61.60
11349;BME280;5729;43.570;27.826;2022-08-30T08:21:22;99057.69;;;31.91;61.00
11349;BME280;5729;43.570;27.826;2022-08-30T08:23:48;99048.19;;;34.19;44.61
11349;BME280;5729;43.570;27.826;2022-08-30T08:26:14;99051.31;;;37.06;43.27
11349;BME280;5729;43.570;27.826;2022-08-30T08:28:40;99056.03;;;39.36;35.17
11349;BME280;5729;43.570;27.826;2022-08-30T08:31:20;99044.31;;;41.41;31.53
11349;BME280;5729;43.570;27.826;2022-08-30T08:33:47;99046.94;;;42.76;29.86
11349;BME280;5729;43.570;27.826;2022-08-30T08:36:12;99034.81;;;42.83;27.04
11349;BME280;5729;43.570;27.826;2022-08-30T08:38:38;99043.50;;;43.37;27.53
11349;BME280;5729;43.570;27.826;2022-08-30T08:49:27;99013.75;;;46.69;23.09
11349;BME280;5729;43.570;27.826;2022-08-30T08:51:53;99024.56;;;46.92;22.37
11349;BME280;5729;43.570;27.826;2022-08-30T08:57:03;99034.19;;;46.87;21.82
11349;BME280;5729;43.570;27.826;2022-08-30T08:59:29;99020.22;;;46.91;21.55
11349;BME280;5729;43.570;27.826;2022-08-30T09:01:58;99022.03;;;46.86;21.70
11349;BME280;5729;43.570;27.826;2022-08-30T09:04:33;99014.53;;;46.39;20.78
11349;BME280;5729;43.570;27.826;2022-08-30T09:07:02;99033.81;;;46.09;21.93
11349;BME280;5729;43.570;27.826;2022-08-30T09:09:33;99030.00;;;45.66;22.06
11349;BME280;5729;43.570;27.826;2022-08-30T09:11:59;99032.56;;;45.52;22.84
11349;BME280;5729;43.570;27.826;2022-08-30T09:14:28;99024.16;;;45.64;20.63
11349;BME280;5729;43.570;27.826;2022-08-30T09:17:05;99019.84;;;45.53;21.83
11349;BME280;5729;43.570;27.826;2022-08-30T09:19:34;99024.16;;;45.45;20.98
11349;BME280;5729;43.570;27.826;2022-08-30T09:27:47;99018.16;;;44.00;22.43
11349;BME280;5729;43.570;27.826;2022-08-30T09:30:24;99014.84;;;43.77;22.70
11349;BME280;5729;43.570;27.826;2022-08-30T09:32:54;99016.66;;;43.82;21.92
11349;BME280;5729;43.570;27.826;2022-08-30T09:35:35;99005.88;;;43.02;25.10
11349;BME280;5729;43.570;27.826;2022-08-30T09:38:16;99002.97;;;43.27;22.76
11349;BME280;5729;43.570;27.826;2022-08-30T09:40:46;98985.44;;;43.03;21.88
11349;BME280;5729;43.570;27.826;2022-08-30T09:45:43;98999.72;;;42.96;24.44
11349;BME280;5729;43.570;27.826;2022-08-30T09:53:57;99002.94;;;41.93;24.55
11349;BME280;5729;43.570;27.826;2022-08-30T10:01:53;98993.50;;;42.72;24.56
11349;BME280;5729;43.570;27.826;2022-08-30T10:05:09;98991.03;;;43.11;23.04
11349;BME280;5729;43.570;27.826;2022-08-30T10:07:27;98990.03;;;42.82;22.48
11349;BME280;5729;43.570;27.826;2022-08-30T10:10:04;98995.97;;;42.51;21.61
11349;BME280;5729;43.570;27.826;2022-08-30T10:13:33;98989.13;;;42.04;24.69
11349;BME280;5729;43.570;27.826;2022-08-30T10:15:58;98991.31;;;42.63;25.09
11349;BME280;5729;43.570;27.826;2022-08-30T10:18:40;98989.91;;;43.58;23.35
11349;BME280;5729;43.570;27.826;2022-08-30T10:21:20;98990.06;;;44.14;22.93
11349;BME280;5729;43.570;27.826;2022-08-30T10:23:57;98989.78;;;43.83;22.77
11349;BME280;5729;43.570;27.826;2022-08-30T10:29:04;98985.97;;;43.71;20.77
11349;BME280;5729;43.570;27.826;2022-08-30T10:34:15;98964.47;;;44.41;21.75
11349;BME280;5729;43.570;27.826;2022-08-30T10:36:45;98952.09;;;44.46;22.42
11349;BME280;5729;43.570;27.826;2022-08-30T10:39:17;98979.38;;;44.22;21.07
11349;BME280;5729;43.570;27.826;2022-08-30T10:41:54;98974.13;;;42.61;21.59
11349;BME280;5729;43.570;27.826;2022-08-30T10:44:29;98969.72;;;41.93;24.57
11349;BME280;5729;43.570;27.826;2022-08-30T10:47:05;98967.91;;;41.48;23.95
11349;BME280;5729;43.570;27.826;2022-08-30T10:55:29;98958.16;;;42.31;24.05
11349;BME280;5729;43.570;27.826;2022-08-30T10:57:58;98964.22;;;43.56;23.19
11349;BME280;5729;43.570;27.826;2022-08-30T11:00:35;98951.16;;;43.70;21.63
11349;BME280;5729;43.570;27.826;2022-08-30T11:06:17;98950.22;;;44.31;22.23
11349;BME280;5729;43.570;27.826;2022-08-30T11:11:48;98944.41;;;41.30;24.42
11349;BME280;5729;43.570;27.826;2022-08-30T11:14:18;98936.69;;;40.38;24.60
11349;BME280;5729;43.570;27.826;2022-08-30T11:16:48;98940.19;;;39.77;27.01
11349;BME280;5729;43.570;27.826;2022-08-30T11:19:41;98938.09;;;40.99;24.26
11349;BME280;5729;43.570;27.826;2022-08-30T11:27:43;98925.31;;;42.53;24.51
11349;BME280;5729;43.570;27.826;2022-08-30T11:35:53;98906.63;;;41.43;24.95
11349;BME280;5729;43.570;27.826;2022-08-30T11:41:08;98905.66;;;42.30;22.83
11349;BME280;5729;43.570;27.826;2022-08-30T11:54:12;98893.41;;;42.87;25.24
11349;BME280;5729;43.570;27.826;2022-08-30T12:14:00;98863.03;;;42.97;22.92
11349;BME280;5729;43.570;27.826;2022-08-30T12:16:42;98876.97;;;42.86;23.00
11349;BME280;5729;43.570;27.826;2022-08-30T12:19:28;98868.88;;;42.82;22.75
11349;BME280;5729;43.570;27.826;2022-08-30T12:21:57;98867.13;;;42.69;24.49
11349;BME280;5729;43.570;27.826;2022-08-30T12:24:34;98861.50;;;42.27;24.12
11349;BME280;5729;43.570;27.826;2022-08-30T12:27:23;98853.66;;;42.35;25.98
11349;BME280;5729;43.570;27.826;2022-08-30T12:29:55;98847.00;;;42.06;23.06
11349;BME280;5729;43.570;27.826;2022-08-30T12:32:24;98847.16;;;42.25;24.83
11349;BME280;5729;43.570;27.826;2022-08-30T12:34:58;98864.53;;;42.47;23.97
11349;BME280;5729;43.570;27.826;2022-08-30T12:37:36;98864.56;;;42.04;23.78
11349;BME280;5729;43.570;27.826;2022-08-30T12:40:18;98858.41;;;41.33;23.89
11349;BME280;5729;43.570;27.826;2022-08-30T12:42:57;98860.63;;;41.03;23.85
11349;BME280;5729;43.570;27.826;2022-08-30T12:45:26;98856.91;;;40.92;26.50
11349;BME280;5729;43.570;27.826;2022-08-30T12:48:01;98854.09;;;40.92;24.10
11349;BME280;5729;43.570;27.826;2022-08-30T12:50:34;98862.09;;;40.71;23.91
11349;BME280;5729;43.570;27.826;2022-08-30T12:53:03;98851.16;;;40.60;24.60
11349;BME280;5729;43.570;27.826;2022-08-30T12:55:51;98860.34;;;40.68;25.55
11349;BME280;5729;43.570;27.826;2022-08-30T12:58:16;98852.53;;;40.99;26.37
11349;BME280;5729;43.570;27.826;2022-08-30T13:01:26;98850.72;;;40.86;25.05
11349;BME280;5729;43.570;27.826;2022-08-30T13:03:59;98855.59;;;40.93;25.68
11349;BME280;5729;43.570;27.826;2022-08-30T13:06:53;98845.69;;;41.10;26.94
11349;BME280;5729;43.570;27.826;2022-08-30T13:09:42;98848.09;;;41.28;26.50
11349;BME280;5729;43.570;27.826;2022-08-30T13:12:22;98843.03;;;41.52;24.85
11349;BME280;5729;43.570;27.826;2022-08-30T13:14:49;98837.94;;;41.50;25.50
11349;BME280;5729;43.570;27.826;2022-08-30T13:20:05;98833.59;;;41.24;27.66
11349;BME280;5729;43.570;27.826;2022-08-30T13:22:40;98827.09;;;40.99;29.94
11349;BME280;5729;43.570;27.826;2022-08-30T13:25:07;98836.75;;;40.96;28.51
11349;BME280;5729;43.570;27.826;2022-08-30T13:27:35;98829.50;;;40.62;30.01
11349;BME280;5729;43.570;27.826;2022-08-30T13:30:13;98823.63;;;40.68;31.20
11349;BME280;5729;43.570;27.826;2022-08-30T13:32:40;98820.63;;;40.66;29.71
11349;BME280;5729;43.570;27.826;2022-08-30T13:35:07;98831.53;;;40.70;29.87
11349;BME280;5729;43.570;27.826;2022-08-30T13:37:32;98820.69;;;40.51;30.05
11349;BME280;5729;43.570;27.826;2022-08-30T13:39:59;98812.47;;;40.07;32.36
11349;BME280;5729;43.570;27.826;2022-08-30T13:42:24;98813.03;;;39.98;30.84
11349;BME280;5729;43.570;27.826;2022-08-30T13:44:50;98806.28;;;39.86;31.89
11349;BME280;5729;43.570;27.826;2022-08-30T13:47:16;98805.34;;;39.83;31.43
11349;BME280;5729;43.570;27.826;2022-08-30T13:49:42;98793.66;;;39.87;31.09
11349;BME280;5729;43.570;27.826;2022-08-30T13:52:14;98777.50;;;39.49;31.30
11349;BME280;5729;43.570;27.826;2022-08-30T13:54:40;98794.75;;;39.38;32.60
11349;BME280;5729;43.570;27.826;2022-08-30T13:57:06;98803.75;;;39.21;33.01
11349;BME280;5729;43.570;27.826;2022-08-30T13:59:31;98780.91;;;38.89;33.55
11349;BME280;5729;43.570;27.826;2022-08-30T14:01:59;98800.22;;;38.85;35.25
11349;BME280;5729;43.570;27.826;2022-08-30T14:04:25;98793.25;;;38.78;35.90
11349;BME280;5729;43.570;27.826;2022-08-30T14:06:51;98798.72;;;38.84;32.23
11349;BME280;5729;43.570;27.826;2022-08-30T14:09:16;98803.56;;;38.76;33.54
11349;BME280;5729;43.570;27.826;2022-08-30T14:11:42;98800.06;;;38.47;32.16
11349;BME280;5729;43.570;27.826;2022-08-30T14:14:08;98795.44;;;38.57;33.41
11349;BME280;5729;43.570;27.826;2022-08-30T14:16:39;98794.03;;;38.50;33.26
11349;BME280;5729;43.570;27.826;2022-08-30T14:19:05;98800.84;;;38.55;32.35
11349;BME280;5729;43.570;27.826;2022-08-30T14:21:31;98794.00;;;38.43;32.92
11349;BME280;5729;43.570;27.826;2022-08-30T14:23:57;98803.75;;;38.42;34.39
11349;BME280;5729;43.570;27.826;2022-08-30T14:26:58;98796.72;;;38.28;34.04
11349;BME280;5729;43.570;27.826;2022-08-30T14:29:20;98800.28;;;38.00;33.89
11349;BME280;5729;43.570;27.826;2022-08-30T14:31:46;98803.31;;;37.60;34.20
11349;BME280;5729;43.570;27.826;2022-08-30T14:34:16;98799.94;;;37.20;36.45
11349;BME280;5729;43.570;27.826;2022-08-30T14:36:43;98794.00;;;37.24;34.21
11349;BME280;5729;43.570;27.826;2022-08-30T14:39:11;98791.31;;;37.05;36.24